createdAt,value
2022-09-06T00:01:14.865Z,13.72
2022-09-06T00:03:42.066Z,13.73
2022-09-06T00:06:15.635Z,13.73
2022-09-06T00:08:45.162Z,13.71
2022-09-06T00:11:19.423Z,13.72
2022-09-06T00:13:47.806Z,13.71
2022-09-06T00:16:28.549Z,13.76
2022-09-06T00:19:04.490Z,13.75
2022-09-06T00:21:36.326Z,13.70
2022-09-06T00:24:06.073Z,13.72
2022-09-06T00:26:36.654Z,13.73
2022-09-06T00:29:04.814Z,13.69
2022-09-06T00:31:33.094Z,13.62
2022-09-06T00:34:02.935Z,13.62
2022-09-06T00:36:36.006Z,13.62
2022-09-06T00:39:07.646Z,13.60
2022-09-06T00:41:35.739Z,13.59
2022-09-06T00:44:07.797Z,13.62
2022-09-06T00:46:45.814Z,13.56
2022-09-06T00:49:35.311Z,13.50
2022-09-06T00:52:09.749Z,13.44
2022-09-06T00:54:40.472Z,13.42
2022-09-06T00:57:08.721Z,13.41
2022-09-06T00:59:37.896Z,13.35
2022-09-06T01:02:24.291Z,13.31
2022-09-06T01:04:52.697Z,13.28
2022-09-06T01:07:29.421Z,13.30
2022-09-06T01:10:16.910Z,13.24
2022-09-06T01:13:22.585Z,13.21
2022-09-06T01:16:33.333Z,13.13
2022-09-06T01:19:37.714Z,12.95
2022-09-06T01:22:47.068Z,12.70
2022-09-06T01:25:52.570Z,12.67
2022-09-06T01:28:46.448Z,12.63
2022-09-06T01:31:48.462Z,12.60
2022-09-06T01:34:31.592Z,12.57
2022-09-06T01:37:10.980Z,12.53
2022-09-06T01:39:41.906Z,12.64
2022-09-06T01:42:31.168Z,12.64
2022-09-06T01:45:11.461Z,12.58
2022-09-06T01:48:10.283Z,12.50
2022-09-06T01:50:46.616Z,12.41
2022-09-06T01:53:55.187Z,12.33
2022-09-06T01:57:02.581Z,11.51
2022-09-06T01:59:35.611Z,11.52
2022-09-06T02:02:34.109Z,11.42
2022-09-06T02:05:18.989Z,11.36
2022-09-06T02:07:49.725Z,11.37
2022-09-06T02:10:37.628Z,11.23
2022-09-06T02:13:15.986Z,11.13
2022-09-06T02:15:58.898Z,11.02
2022-09-06T02:19:01.057Z,10.98
2022-09-06T02:21:40.587Z,11.02
2022-09-06T02:24:23.483Z,11.19
2022-09-06T02:26:54.816Z,11.19
2022-09-06T02:29:35.538Z,11.25
2022-09-06T02:32:02.825Z,11.34
2022-09-06T02:34:37.161Z,11.40
2022-09-06T02:37:06.716Z,11.47
2022-09-06T02:39:34.196Z,11.44
2022-09-06T02:42:12.875Z,11.45
2022-09-06T02:44:41.036Z,11.47
2022-09-06T02:47:17.012Z,11.40
2022-09-06T02:49:57.905Z,11.40
2022-09-06T02:52:24.963Z,11.44
2022-09-06T02:54:54.146Z,11.45
2022-09-06T02:57:30.048Z,11.49
2022-09-06T02:59:57.051Z,11.50
2022-09-06T03:02:26.359Z,11.56
2022-09-06T03:04:55.642Z,11.55
2022-09-06T03:07:26.632Z,11.60
2022-09-06T03:10:10.743Z,11.66
2022-09-06T03:12:38.673Z,11.69
2022-09-06T03:15:09.221Z,11.71
2022-09-06T03:17:41.975Z,11.73
2022-09-06T03:20:23.327Z,11.65
2022-09-06T03:22:50.391Z,11.45
2022-09-06T03:25:36.293Z,11.03
2022-09-06T03:28:10.835Z,10.80
2022-09-06T03:30:38.119Z,10.76
2022-09-06T03:33:07.674Z,11.13
2022-09-06T03:35:34.808Z,11.35
2022-09-06T03:38:08.272Z,11.50
2022-09-06T03:40:36.679Z,11.56
2022-09-06T03:43:05.914Z,11.65
2022-09-06T03:45:41.304Z,11.77
2022-09-06T03:48:10.485Z,11.79
2022-09-06T03:50:38.743Z,11.72
2022-09-06T03:53:11.090Z,11.73
2022-09-06T03:55:48.964Z,11.85
2022-09-06T03:58:17.832Z,11.84
2022-09-06T04:00:45.436Z,11.71
2022-09-06T04:03:15.979Z,11.61
2022-09-06T04:05:47.083Z,11.51
2022-09-06T04:08:17.192Z,11.60
2022-09-06T04:10:53.503Z,11.63
2022-09-06T04:13:29.639Z,11.69
2022-09-06T04:16:00.108Z,11.70
2022-09-06T04:18:30.528Z,11.76
2022-09-06T04:21:07.532Z,11.81
2022-09-06T04:23:39.659Z,11.93
2022-09-06T04:26:13.401Z,11.97
2022-09-06T04:28:43.743Z,12.11
2022-09-06T04:31:15.066Z,12.19
2022-09-06T04:33:44.143Z,12.31
2022-09-06T04:36:19.263Z,12.45
2022-09-06T04:38:48.299Z,12.50
2022-09-06T04:41:17.363Z,12.55
2022-09-06T04:43:46.707Z,12.63
2022-09-06T04:46:27.368Z,12.68
2022-09-06T04:48:55.470Z,12.71
2022-09-06T04:51:22.805Z,12.74
2022-09-06T04:53:50.188Z,12.75
2022-09-06T04:56:20.946Z,12.75
2022-09-06T04:58:49.872Z,12.74
2022-09-06T05:01:17.284Z,12.85
2022-09-06T05:03:44.664Z,12.82
2022-09-06T05:06:19.953Z,12.90
2022-09-06T05:08:57.091Z,12.93
2022-09-06T05:11:26.264Z,12.95
2022-09-06T05:13:54.298Z,12.92
2022-09-06T05:16:29.573Z,12.96
2022-09-06T05:18:57.688Z,12.95
2022-09-06T05:21:24.836Z,12.90
2022-09-06T05:23:55.490Z,12.90
2022-09-06T05:26:27.682Z,12.82
2022-09-06T05:28:57.699Z,12.87
2022-09-06T05:31:33.466Z,12.96
2022-09-06T05:34:08.807Z,12.91
2022-09-06T05:36:42.378Z,12.88
2022-09-06T05:39:10.409Z,12.86
2022-09-06T05:41:37.508Z,12.84
2022-09-06T05:44:10.794Z,12.88
2022-09-06T05:46:45.896Z,12.94
2022-09-06T05:49:13.776Z,12.90
2022-09-06T05:51:41.555Z,12.85
2022-09-06T05:54:11.693Z,12.96
2022-09-06T05:56:39.749Z,12.93
2022-09-06T05:59:08.024Z,13.04
2022-09-06T06:01:36.306Z,13.10
2022-09-06T06:04:08.234Z,13.15
2022-09-06T06:06:37.494Z,13.18
2022-09-06T06:09:17.292Z,13.22
2022-09-06T06:11:46.392Z,13.28
2022-09-06T06:14:13.649Z,13.30
2022-09-06T06:16:43.913Z,13.32
2022-09-06T06:19:10.978Z,13.41
2022-09-06T06:21:47.084Z,13.50
2022-09-06T06:24:14.287Z,13.61
2022-09-06T06:26:42.354Z,13.55
2022-09-06T06:29:14.821Z,13.49
2022-09-06T06:31:45.092Z,13.52
2022-09-06T06:34:22.047Z,13.46
2022-09-06T06:36:49.549Z,13.40
2022-09-06T06:39:17.599Z,13.22
2022-09-06T06:41:44.999Z,13.13
2022-09-06T06:44:14.064Z,13.27
2022-09-06T06:46:42.026Z,13.47
2022-09-06T06:49:09.135Z,13.66
2022-09-06T06:51:39.914Z,13.66
2022-09-06T06:54:07.015Z,13.82
2022-09-06T06:56:45.809Z,13.69
2022-09-06T06:59:19.035Z,13.71
2022-09-06T07:01:46.240Z,13.83
2022-09-06T07:04:14.541Z,14.05
2022-09-06T07:12:31.714Z,14.68
2022-09-06T07:15:00.766Z,14.85
2022-09-06T07:17:33.056Z,15.00
2022-09-06T07:20:16.180Z,15.13
2022-09-06T07:22:43.838Z,15.25
2022-09-06T07:25:16.528Z,15.36
2022-09-06T07:28:09.518Z,15.45
2022-09-06T07:30:39.554Z,15.43
2022-09-06T07:33:12.993Z,15.45
2022-09-06T07:35:39.999Z,15.47
2022-09-06T07:38:09.050Z,15.39
2022-09-06T07:40:41.932Z,15.15
2022-09-06T07:43:12.120Z,15.25
2022-09-06T07:45:46.052Z,15.25
2022-09-06T07:48:13.111Z,15.39
2022-09-06T07:50:49.258Z,15.46
2022-09-06T07:53:24.651Z,15.66
2022-09-06T07:55:57.892Z,15.83
2022-09-06T07:58:26.019Z,16.09
2022-09-06T08:00:53.263Z,16.26
2022-09-06T08:03:20.529Z,16.40
2022-09-06T08:06:13.718Z,16.54
2022-09-06T08:08:57.929Z,16.65
2022-09-06T08:11:29.378Z,16.83
2022-09-06T08:14:00.475Z,17.05
2022-09-06T08:16:41.552Z,17.31
2022-09-06T08:19:12.558Z,17.53
2022-09-06T08:21:39.664Z,17.66
2022-09-06T08:24:12.186Z,17.80
2022-09-06T08:26:45.861Z,18.04
2022-09-06T08:29:13.963Z,18.20
2022-09-06T08:31:47.203Z,18.46
2022-09-06T08:34:15.466Z,18.70
2022-09-06T08:36:48.402Z,18.83
2022-09-06T08:39:18.153Z,18.84
2022-09-06T08:42:08.248Z,18.79
2022-09-06T08:47:26.446Z,18.89
2022-09-06T08:50:04.302Z,19.10
2022-09-06T08:52:34.368Z,19.17
2022-09-06T08:55:39.182Z,19.32
2022-09-06T08:58:29.260Z,19.41
2022-09-06T09:01:19.118Z,19.60
2022-09-06T09:03:47.382Z,19.75
2022-09-06T09:06:17.344Z,19.44
2022-09-06T09:08:56.395Z,19.49
2022-09-06T09:11:26.419Z,19.63
2022-09-06T09:14:02.117Z,19.83
2022-09-06T09:16:33.373Z,19.94
2022-09-06T09:19:04.465Z,19.98
2022-09-06T09:21:36.866Z,20.11
2022-09-06T09:24:07.546Z,20.27
2022-09-06T09:26:57.031Z,20.39
2022-09-06T09:29:29.447Z,20.58
2022-09-06T09:31:59.240Z,20.91
2022-09-06T09:34:36.166Z,21.08
2022-09-06T09:40:29.937Z,21.20
2022-09-06T09:43:11.155Z,21.28
2022-09-06T09:45:41.781Z,21.43
2022-09-06T09:48:28.710Z,21.68
2022-09-06T09:51:26.254Z,21.74
2022-09-06T09:53:59.401Z,21.79
2022-09-06T09:56:55.973Z,22.07
2022-09-06T09:59:43.715Z,22.26
2022-09-06T10:02:29.430Z,22.31
2022-09-06T10:05:13.433Z,22.64
2022-09-06T10:07:44.857Z,22.73
2022-09-06T10:10:15.370Z,22.83
2022-09-06T10:12:43.192Z,22.90
2022-09-06T10:15:31.749Z,22.98
2022-09-06T10:17:59.909Z,23.41
2022-09-06T10:20:39.398Z,23.83
2022-09-06T10:26:24.819Z,24.48
2022-09-06T10:29:00.588Z,24.76
2022-09-06T10:31:39.458Z,24.01
2022-09-06T10:34:48.967Z,24.01
2022-09-06T10:37:46.648Z,24.23
2022-09-06T10:40:30.043Z,24.52
2022-09-06T10:43:00.124Z,25.07
2022-09-06T10:45:46.421Z,25.58
2022-09-06T10:48:19.449Z,25.40
2022-09-06T10:51:00.216Z,25.31
2022-09-06T10:53:47.418Z,25.90
2022-09-06T10:56:55.610Z,25.62
2022-09-06T10:59:53.545Z,26.02
2022-09-06T11:06:20.031Z,27.17
2022-09-06T11:09:12.476Z,27.98
2022-09-06T11:12:31.135Z,28.64
2022-09-06T11:15:03.744Z,29.37
2022-09-06T11:17:45.709Z,29.41
2022-09-06T11:20:39.627Z,29.19
2022-09-06T11:23:39.936Z,29.24
2022-09-06T11:26:47.936Z,29.32
2022-09-06T11:29:26.529Z,29.03
2022-09-06T11:32:17.167Z,28.95
2022-09-06T11:34:54.723Z,28.81
2022-09-06T11:37:43.202Z,28.64
2022-09-06T11:42:59.724Z,28.45
2022-09-06T11:45:48.076Z,28.45
2022-09-06T11:48:35.226Z,27.67
2022-09-06T11:51:11.348Z,27.31
2022-09-06T11:53:50.689Z,27.24
2022-09-06T11:56:48.195Z,27.35
2022-09-06T11:59:21.762Z,27.30
2022-09-06T12:02:03.869Z,26.97
2022-09-06T12:05:09.857Z,27.30
2022-09-06T12:07:58.921Z,27.70
2022-09-06T12:10:31.808Z,27.78
2022-09-06T12:12:59.954Z,27.64
2022-09-06T12:15:53.644Z,26.47
2022-09-06T12:18:40.069Z,25.95
2022-09-06T12:21:07.577Z,26.75
2022-09-06T12:23:37.777Z,27.27
2022-09-06T12:26:10.390Z,27.86
2022-09-06T12:28:47.642Z,28.12
2022-09-06T12:31:43.070Z,27.89
2022-09-06T12:34:31.856Z,28.80
2022-09-06T12:37:04.719Z,29.24
2022-09-06T12:39:35.269Z,29.10
2022-09-06T12:42:13.215Z,29.45
2022-09-06T12:44:51.646Z,30.05
2022-09-06T12:47:29.027Z,30.93
2022-09-06T12:50:15.235Z,31.23
2022-09-06T12:52:52.770Z,30.30
2022-09-06T12:55:38.025Z,29.31
2022-09-06T12:58:07.840Z,29.04
2022-09-06T13:00:40.893Z,27.83
2022-09-06T13:03:10.552Z,25.98
2022-09-06T13:05:43.468Z,26.13
2022-09-06T13:08:20.871Z,26.56
2022-09-06T13:10:52.086Z,26.10
2022-09-06T13:13:25.270Z,26.68
2022-09-06T13:15:55.151Z,27.39
2022-09-06T13:18:40.454Z,28.56
2022-09-06T13:21:15.130Z,29.71
2022-09-06T13:23:45.966Z,30.28
2022-09-06T13:26:39.726Z,30.13
2022-09-06T13:29:23.277Z,31.05
2022-09-06T13:31:55.802Z,31.15
2022-09-06T13:34:29.499Z,31.02
2022-09-06T13:37:02.868Z,30.98
2022-09-06T13:39:32.197Z,30.79
2022-09-06T13:42:05.989Z,30.32
2022-09-06T13:44:34.852Z,29.90
2022-09-06T13:47:05.918Z,29.79
2022-09-06T13:49:34.166Z,30.37
2022-09-06T13:52:04.989Z,31.13
2022-09-06T13:54:33.414Z,31.54
2022-09-06T13:57:01.993Z,32.01
2022-09-06T13:59:34.070Z,32.31
2022-09-06T14:02:13.378Z,32.69
2022-09-06T14:04:40.480Z,32.78
2022-09-06T14:07:07.853Z,32.56
2022-09-06T14:09:36.005Z,32.13
2022-09-06T14:12:03.464Z,31.86
2022-09-06T14:14:30.727Z,31.36
2022-09-06T14:16:57.853Z,31.91
2022-09-06T14:19:31.106Z,30.93
2022-09-06T14:21:58.291Z,30.09
2022-09-06T14:24:25.393Z,30.70
2022-09-06T14:26:55.538Z,31.22
2022-09-06T14:29:29.709Z,31.25
2022-09-06T14:31:57.702Z,31.52
2022-09-06T14:34:48.110Z,32.20
2022-09-06T14:37:16.153Z,32.44
2022-09-06T14:39:45.747Z,32.44
2022-09-06T14:42:20.518Z,32.87
2022-09-06T14:44:47.768Z,32.64
2022-09-06T14:47:16.893Z,31.62
2022-09-06T14:49:51.611Z,31.91
2022-09-06T14:52:35.205Z,31.48
2022-09-06T14:55:08.287Z,31.87
2022-09-06T14:57:36.086Z,31.17
2022-09-06T15:00:13.491Z,31.55
2022-09-06T15:02:40.599Z,31.73
2022-09-06T15:05:09.259Z,31.85
2022-09-06T15:07:36.576Z,31.65
2022-09-06T15:10:04.611Z,31.66
2022-09-06T15:12:31.570Z,31.56
2022-09-06T15:14:58.746Z,31.41
2022-09-06T15:17:25.818Z,31.11
2022-09-06T15:19:54.604Z,31.68
2022-09-06T15:22:21.695Z,31.83
2022-09-06T15:25:02.968Z,31.25
2022-09-06T15:27:32.026Z,30.37
2022-09-06T15:30:05.370Z,29.57
2022-09-06T15:32:39.390Z,28.94
2022-09-06T15:35:08.816Z,28.56
2022-09-06T15:37:52.961Z,28.17
2022-09-06T15:40:27.014Z,27.92
2022-09-06T15:43:08.392Z,27.67
2022-09-06T15:45:50.967Z,27.44
2022-09-06T15:48:19.175Z,27.21
2022-09-06T15:50:51.615Z,27.05
2022-09-06T15:53:20.738Z,26.81
2022-09-06T15:55:59.409Z,26.52
2022-09-06T15:58:31.724Z,26.27
2022-09-06T16:01:11.105Z,26.15
2022-09-06T16:03:43.879Z,26.03
2022-09-06T16:08:58.874Z,25.73
2022-09-06T16:11:37.090Z,25.63
2022-09-06T16:14:06.693Z,25.49
2022-09-06T16:16:46.776Z,25.23
2022-09-06T16:19:15.020Z,25.11
2022-09-06T16:21:49.995Z,24.93
2022-09-06T16:24:19.677Z,24.86
2022-09-06T16:26:47.934Z,24.76
2022-09-06T16:29:16.860Z,24.58
2022-09-06T16:31:44.270Z,24.48
2022-09-06T16:34:15.028Z,24.40
2022-09-06T16:36:43.244Z,24.35
2022-09-06T16:39:11.133Z,24.16
2022-09-06T16:41:45.160Z,24.08
2022-09-06T16:44:17.147Z,24.00
2022-09-06T16:46:49.499Z,23.91
2022-09-06T16:49:18.006Z,23.76
2022-09-06T16:51:46.127Z,23.41
2022-09-06T16:54:14.872Z,23.17
2022-09-06T16:56:42.342Z,22.78
2022-09-06T16:59:11.795Z,22.66
2022-09-06T17:01:43.720Z,22.43
2022-09-06T17:04:13.765Z,22.39
2022-09-06T17:06:47.283Z,22.23
2022-09-06T17:09:19.466Z,22.08
2022-09-06T17:11:50.180Z,21.94
2022-09-06T17:14:20.659Z,21.78
2022-09-06T17:17:07.481Z,21.63
2022-09-06T17:19:37.788Z,21.53
2022-09-06T17:22:06.618Z,21.35
2022-09-06T17:24:34.399Z,21.22
2022-09-06T17:27:05.940Z,21.07
2022-09-06T17:29:36.403Z,20.97
2022-09-06T17:32:10.573Z,20.88
2022-09-06T17:34:42.136Z,20.68
2022-09-06T17:37:09.262Z,20.62
2022-09-06T17:39:44.871Z,20.48
2022-09-06T17:42:13.554Z,20.34
2022-09-06T17:44:40.760Z,20.19
2022-09-06T17:47:17.009Z,20.09
2022-09-06T17:49:54.311Z,20.00
2022-09-06T17:52:22.589Z,19.89
2022-09-06T17:54:49.895Z,19.80
2022-09-06T17:57:30.083Z,19.66
2022-09-06T18:00:05.955Z,19.53
2022-09-06T18:02:33.372Z,19.38
2022-09-06T18:05:01.879Z,19.26
2022-09-06T18:07:33.592Z,19.12
2022-09-06T18:10:02.044Z,18.91
2022-09-06T18:12:33.429Z,18.75
2022-09-06T18:15:03.972Z,18.73
2022-09-06T18:17:32.765Z,18.65
2022-09-06T18:20:04.422Z,18.62
2022-09-06T18:22:32.341Z,18.54
2022-09-06T18:25:00.834Z,18.51
2022-09-06T18:27:52.431Z,18.50
2022-09-06T18:30:19.832Z,18.47
2022-09-06T18:32:48.408Z,18.52
2022-09-06T18:35:17.122Z,18.47
2022-09-06T18:37:52.574Z,18.44
2022-09-06T18:40:23.798Z,18.44
2022-09-06T18:43:02.576Z,18.38
2022-09-06T18:45:34.421Z,18.29
2022-09-06T18:48:12.264Z,18.21
2022-09-06T18:50:50.054Z,18.14
2022-09-06T18:53:19.313Z,18.05
2022-09-06T18:55:52.690Z,18.01
2022-09-06T18:58:20.535Z,17.92
2022-09-06T19:00:51.417Z,17.88
2022-09-06T19:03:56.276Z,17.87
2022-09-06T19:06:30.627Z,17.86
2022-09-06T19:09:09.899Z,17.86
2022-09-06T19:11:46.255Z,17.75
2022-09-06T19:14:15.336Z,17.67
2022-09-06T19:16:54.409Z,17.56
2022-09-06T19:19:27.864Z,17.49
2022-09-06T19:21:56.476Z,17.48
2022-09-06T19:24:26.279Z,17.52
2022-09-06T19:26:57.950Z,17.45
2022-09-06T19:29:27.892Z,17.47
2022-09-06T19:31:57.024Z,17.46
2022-09-06T19:34:42.908Z,17.52
2022-09-06T19:37:19.691Z,17.54
2022-09-06T19:39:49.292Z,17.53
2022-09-06T19:42:17.032Z,17.55
2022-09-06T19:44:45.956Z,17.56
2022-09-06T19:47:19.264Z,17.46
2022-09-06T19:49:47.737Z,17.44
2022-09-06T19:52:16.068Z,17.40
2022-09-06T19:54:44.218Z,17.40
2022-09-06T19:57:13.671Z,17.45
2022-09-06T19:59:42.524Z,17.38
2022-09-06T20:02:14.129Z,17.30
2022-09-06T20:04:47.773Z,17.35
2022-09-06T20:07:20.414Z,17.37
2022-09-06T20:09:52.589Z,17.38
2022-09-06T20:12:21.383Z,17.37
2022-09-06T20:14:55.873Z,17.26
2022-09-06T20:17:34.451Z,17.12
2022-09-06T20:20:04.693Z,17.03
2022-09-06T20:22:33.974Z,16.93
2022-09-06T20:25:01.393Z,16.96
2022-09-06T20:27:31.497Z,16.83
2022-09-06T20:30:02.120Z,16.77
2022-09-06T20:32:35.740Z,16.73
2022-09-06T20:35:03.176Z,16.70
2022-09-06T20:37:30.972Z,16.64
2022-09-06T20:40:00.635Z,16.59
2022-09-06T20:42:33.315Z,16.55
2022-09-06T20:45:07.935Z,16.54
2022-09-06T20:47:39.816Z,16.56
2022-09-06T20:50:27.321Z,16.48
2022-09-06T20:53:03.653Z,16.46
2022-09-06T20:55:32.252Z,16.51
2022-09-06T20:57:59.645Z,16.47
2022-09-06T21:00:26.893Z,16.55
2022-09-06T21:02:54.061Z,16.47
2022-09-06T21:05:21.124Z,16.46
2022-09-06T21:07:50.169Z,16.51
2022-09-06T21:10:18.215Z,16.41
2022-09-06T21:12:45.215Z,16.39
2022-09-06T21:15:13.289Z,16.37
2022-09-06T21:17:40.359Z,16.32
2022-09-06T21:20:18.900Z,16.21
2022-09-06T21:22:49.445Z,16.14
2022-09-06T21:25:16.596Z,16.03
2022-09-06T21:27:43.786Z,15.92
2022-09-06T21:30:11.840Z,15.93
2022-09-06T21:32:39.863Z,15.86
2022-09-06T21:35:07.555Z,15.79
2022-09-06T21:37:34.783Z,15.81
2022-09-06T21:40:02.063Z,15.81
2022-09-06T21:42:31.140Z,15.84
2022-09-06T21:44:58.195Z,15.83
2022-09-06T21:47:30.836Z,15.85
2022-09-06T21:50:01.013Z,15.84
2022-09-06T21:52:35.377Z,15.81
2022-09-06T21:55:02.540Z,15.78
2022-09-06T21:57:30.607Z,15.68
2022-09-06T22:00:21.490Z,15.71
2022-09-06T22:02:49.963Z,15.66
2022-09-06T22:05:17.501Z,15.58
2022-09-06T22:07:45.535Z,15.55
2022-09-06T22:10:12.591Z,15.53
2022-09-06T22:12:42.533Z,15.52
2022-09-06T22:15:10.793Z,15.45
2022-09-06T22:17:38.899Z,15.39
2022-09-06T22:20:08.734Z,15.31
2022-09-06T22:22:38.535Z,15.23
2022-09-06T22:25:06.003Z,15.16
2022-09-06T22:27:41.627Z,15.12
2022-09-06T22:30:09.188Z,14.95
2022-09-06T22:32:39.336Z,14.99
2022-09-06T22:35:10.681Z,15.09
2022-09-06T22:38:03.513Z,15.10
2022-09-06T22:40:31.536Z,15.14
2022-09-06T22:42:59.582Z,15.14
2022-09-06T22:45:30.222Z,15.09
2022-09-06T22:47:57.271Z,15.04
2022-09-06T22:50:27.256Z,14.96
2022-09-06T22:52:59.408Z,15.01
2022-09-06T22:55:31.520Z,14.93
2022-09-06T22:57:59.647Z,14.91
2022-09-06T23:00:30.019Z,14.87
2022-09-06T23:02:59.057Z,14.90
2022-09-06T23:05:31.770Z,14.86
2022-09-06T23:08:16.133Z,14.89
2022-09-06T23:10:44.618Z,14.82
2022-09-06T23:13:20.940Z,14.78
2022-09-06T23:15:54.210Z,14.61
2022-09-06T23:18:21.457Z,14.61
2022-09-06T23:20:48.471Z,14.49
2022-09-06T23:23:15.522Z,14.51
2022-09-06T23:26:08.389Z,14.48
2022-09-06T23:28:36.648Z,14.34
2022-09-06T23:31:16.510Z,14.34
2022-09-06T23:33:45.661Z,14.26
2022-09-06T23:36:15.022Z,14.26
2022-09-06T23:38:43.328Z,14.24
2022-09-06T23:41:12.539Z,14.22
2022-09-06T23:43:44.120Z,14.17
2022-09-06T23:46:36.546Z,14.12
2022-09-06T23:49:03.592Z,14.11
2022-09-06T23:51:31.797Z,14.11
2022-09-06T23:54:01.287Z,14.01
2022-09-06T23:56:32.292Z,14.04
2022-09-06T23:58:59.308Z,13.97
